Aviation Digital Data Service (ADDS)

Output produced by METARs form (1955 UTC 15 October 2018)
found at http://www.aviationweather.gov/metar/data/
 
TAF AMD KRIV 151255Z 1512/1618 02015G25KT 9999 FEW110 520009 QNH3000INS WND
340V060 
     TEMPO 1515/1600 02025G35KT 530009 
     BECMG 1601/1602 02012G18KT 9999 SKC QNH3001INS 
     BECMG 1603/1604 03009KT 9999 SKC QNH3001INS 
     BECMG 1614/1615 05012KT 9999 SKC QNH3006INS TX24/1522Z TN10/1612Z